sensor_id;sensor_type;location;lat;lon;timestamp;P1;durP1;ratioP1;P2;durP2;ratioP2
58926;SDS011;44712;52.530;9.760;2023-03-01T00:01:14;12.82;;;7.55;;
58926;SDS011;44712;52.530;9.760;2023-03-01T00:03:44;10.02;;;8.32;;
58926;SDS011;44712;52.530;9.760;2023-03-01T00:06:11;14.38;;;7.90;;
58926;SDS011;44712;52.530;9.760;2023-03-01T00:08:38;12.10;;;8.35;;
58926;SDS011;44712;52.530;9.760;2023-03-01T00:13:49;13.95;;;8.55;;
58926;SDS011;44712;52.530;9.760;2023-03-01T00:16:22;11.50;;;8.88;;
58926;SDS011;44712;52.530;9.760;2023-03-01T00:18:54;14.63;;;8.98;;
58926;SDS011;44712;52.530;9.760;2023-03-01T00:21:22;13.93;;;9.23;;
58926;SDS011;44712;52.530;9.760;2023-03-01T00:23:49;12.88;;;9.77;;
58926;SDS011;44712;52.530;9.760;2023-03-01T00:26:17;16.35;;;8.15;;
58926;SDS011;44712;52.530;9.760;2023-03-01T00:28:45;11.70;;;7.93;;
58926;SDS011;44712;52.530;9.760;2023-03-01T00:31:19;13.95;;;8.35;;
58926;SDS011;44712;52.530;9.760;2023-03-01T00:33:47;9.68;;;8.13;;
58926;SDS011;44712;52.530;9.760;2023-03-01T00:36:14;13.07;;;8.43;;
58926;SDS011;44712;52.530;9.760;2023-03-01T00:38:43;14.95;;;9.65;;
58926;SDS011;44712;52.530;9.760;2023-03-01T00:41:12;13.48;;;8.68;;
58926;SDS011;44712;52.530;9.760;2023-03-01T00:43:40;16.58;;;9.65;;
58926;SDS011;44712;52.530;9.760;2023-03-01T00:46:09;15.40;;;9.48;;
58926;SDS011;44712;52.530;9.760;2023-03-01T00:48:39;17.17;;;10.07;;
58926;SDS011;44712;52.530;9.760;2023-03-01T00:51:07;18.50;;;9.77;;
58926;SDS011;44712;52.530;9.760;2023-03-01T00:53:42;14.13;;;9.02;;
58926;SDS011;44712;52.530;9.760;2023-03-01T00:56:10;14.05;;;9.15;;
58926;SDS011;44712;52.530;9.760;2023-03-01T00:58:38;13.43;;;7.95;;
58926;SDS011;44712;52.530;9.760;2023-03-01T01:03:50;14.43;;;7.60;;
58926;SDS011;44712;52.530;9.760;2023-03-01T01:06:19;14.55;;;9.35;;
58926;SDS011;44712;52.530;9.760;2023-03-01T01:08:48;13.48;;;8.60;;
58926;SDS011;44712;52.530;9.760;2023-03-01T01:11:15;13.68;;;8.82;;
58926;SDS011;44712;52.530;9.760;2023-03-01T01:13:43;14.38;;;8.98;;
58926;SDS011;44712;52.530;9.760;2023-03-01T01:16:11;13.73;;;7.45;;
58926;SDS011;44712;52.530;9.760;2023-03-01T01:18:38;15.27;;;8.07;;
58926;SDS011;44712;52.530;9.760;2023-03-01T01:21:07;12.15;;;8.05;;
58926;SDS011;44712;52.530;9.760;2023-03-01T01:23:37;14.45;;;9.38;;
58926;SDS011;44712;52.530;9.760;2023-03-01T01:26:15;10.27;;;7.72;;
58926;SDS011;44712;52.530;9.760;2023-03-01T01:28:48;11.43;;;7.55;;
58926;SDS011;44712;52.530;9.760;2023-03-01T01:31:15;15.27;;;8.18;;
58926;SDS011;44712;52.530;9.760;2023-03-01T01:33:43;13.82;;;8.02;;
58926;SDS011;44712;52.530;9.760;2023-03-01T01:36:11;13.10;;;7.72;;
58926;SDS011;44712;52.530;9.760;2023-03-01T01:38:39;15.07;;;9.27;;
58926;SDS011;44712;52.530;9.760;2023-03-01T01:41:09;13.18;;;8.50;;
58926;SDS011;44712;52.530;9.760;2023-03-01T01:43:39;11.88;;;8.93;;
58926;SDS011;44712;52.530;9.760;2023-03-01T01:46:15;15.68;;;10.10;;
58926;SDS011;44712;52.530;9.760;2023-03-01T01:48:48;10.20;;;8.82;;
58926;SDS011;44712;52.530;9.760;2023-03-01T01:51:20;17.30;;;9.20;;
58926;SDS011;44712;52.530;9.760;2023-03-01T01:53:52;12.18;;;8.77;;
58926;SDS011;44712;52.530;9.760;2023-03-01T01:56:23;12.40;;;9.68;;
58926;SDS011;44712;52.530;9.760;2023-03-01T01:58:52;13.93;;;9.15;;
58926;SDS011;44712;52.530;9.760;2023-03-01T02:01:20;15.23;;;8.45;;
58926;SDS011;44712;52.530;9.760;2023-03-01T02:03:46;13.57;;;8.27;;
58926;SDS011;44712;52.530;9.760;2023-03-01T02:06:17;12.25;;;8.20;;
58926;SDS011;44712;52.530;9.760;2023-03-01T02:08:48;13.63;;;8.57;;
58926;SDS011;44712;52.530;9.760;2023-03-01T02:11:18;13.68;;;8.30;;
58926;SDS011;44712;52.530;9.760;2023-03-01T02:13:47;12.98;;;7.82;;
58926;SDS011;44712;52.530;9.760;2023-03-01T02:16:15;13.93;;;9.15;;
58926;SDS011;44712;52.530;9.760;2023-03-01T02:18:46;13.80;;;8.75;;
58926;SDS011;44712;52.530;9.760;2023-03-01T02:23:48;12.52;;;9.00;;
58926;SDS011;44712;52.530;9.760;2023-03-01T02:26:18;19.27;;;9.07;;
58926;SDS011;44712;52.530;9.760;2023-03-01T02:28:50;13.68;;;7.97;;
58926;SDS011;44712;52.530;9.760;2023-03-01T02:31:18;16.42;;;9.60;;
58926;SDS011;44712;52.530;9.760;2023-03-01T02:34:06;12.75;;;8.60;;
58926;SDS011;44712;52.530;9.760;2023-03-01T02:36:37;15.18;;;8.77;;
58926;SDS011;44712;52.530;9.760;2023-03-01T02:39:08;15.07;;;9.18;;
58926;SDS011;44712;52.530;9.760;2023-03-01T02:41:41;17.80;;;10.68;;
58926;SDS011;44712;52.530;9.760;2023-03-01T02:44:10;20.15;;;10.77;;
58926;SDS011;44712;52.530;9.760;2023-03-01T02:46:50;16.35;;;10.65;;
58926;SDS011;44712;52.530;9.760;2023-03-01T02:57:33;18.58;;;9.70;;
58926;SDS011;44712;52.530;9.760;2023-03-01T03:00:04;15.82;;;10.18;;
58926;SDS011;44712;52.530;9.760;2023-03-01T03:02:34;20.17;;;10.90;;
58926;SDS011;44712;52.530;9.760;2023-03-01T03:05:09;16.23;;;10.63;;
58926;SDS011;44712;52.530;9.760;2023-03-01T03:07:39;13.20;;;8.98;;
58926;SDS011;44712;52.530;9.760;2023-03-01T03:10:13;15.90;;;10.48;;
58926;SDS011;44712;52.530;9.760;2023-03-01T03:12:55;18.10;;;10.50;;
58926;SDS011;44712;52.530;9.760;2023-03-01T03:15:23;15.23;;;10.50;;
58926;SDS011;44712;52.530;9.760;2023-03-01T03:17:51;16.48;;;10.38;;
58926;SDS011;44712;52.530;9.760;2023-03-01T03:20:25;19.77;;;10.30;;
58926;SDS011;44712;52.530;9.760;2023-03-01T03:22:56;14.73;;;9.82;;
58926;SDS011;44712;52.530;9.760;2023-03-01T03:25:24;18.10;;;10.10;;
58926;SDS011;44712;52.530;9.760;2023-03-01T03:27:53;22.08;;;11.05;;
58926;SDS011;44712;52.530;9.760;2023-03-01T03:30:28;20.35;;;11.25;;
58926;SDS011;44712;52.530;9.760;2023-03-01T03:32:57;20.00;;;11.32;;
58926;SDS011;44712;52.530;9.760;2023-03-01T03:35:27;17.05;;;10.43;;
58926;SDS011;44712;52.530;9.760;2023-03-01T03:38:00;18.02;;;10.38;;
58926;SDS011;44712;52.530;9.760;2023-03-01T03:40:32;18.42;;;10.38;;
58926;SDS011;44712;52.530;9.760;2023-03-01T03:43:01;15.80;;;10.75;;
58926;SDS011;44712;52.530;9.760;2023-03-01T03:45:29;18.10;;;10.68;;
58926;SDS011;44712;52.530;9.760;2023-03-01T03:47:56;17.83;;;10.88;;
58926;SDS011;44712;52.530;9.760;2023-03-01T03:50:22;15.05;;;9.68;;
58926;SDS011;44712;52.530;9.760;2023-03-01T03:52:50;19.73;;;10.70;;
58926;SDS011;44712;52.530;9.760;2023-03-01T03:55:17;19.77;;;10.65;;
58926;SDS011;44712;52.530;9.760;2023-03-01T03:57:46;16.73;;;10.48;;
58926;SDS011;44712;52.530;9.760;2023-03-01T04:00:18;17.70;;;10.32;;
58926;SDS011;44712;52.530;9.760;2023-03-01T04:02:48;18.95;;;10.40;;
58926;SDS011;44712;52.530;9.760;2023-03-01T04:05:16;18.30;;;10.52;;
58926;SDS011;44712;52.530;9.760;2023-03-01T04:07:44;16.25;;;10.18;;
58926;SDS011;44712;52.530;9.760;2023-03-01T04:10:13;17.70;;;10.30;;
58926;SDS011;44712;52.530;9.760;2023-03-01T04:12:41;16.35;;;10.32;;
58926;SDS011;44712;52.530;9.760;2023-03-01T04:15:12;16.05;;;9.98;;
58926;SDS011;44712;52.530;9.760;2023-03-01T04:17:39;14.20;;;8.65;;
58926;SDS011;44712;52.530;9.760;2023-03-01T04:20:11;16.00;;;9.48;;
58926;SDS011;44712;52.530;9.760;2023-03-01T04:22:52;17.38;;;9.35;;
58926;SDS011;44712;52.530;9.760;2023-03-01T04:25:24;16.05;;;10.05;;
58926;SDS011;44712;52.530;9.760;2023-03-01T04:27:51;14.93;;;9.02;;
58926;SDS011;44712;52.530;9.760;2023-03-01T04:30:18;12.70;;;8.38;;
58926;SDS011;44712;52.530;9.760;2023-03-01T04:32:46;17.40;;;9.55;;
58926;SDS011;44712;52.530;9.760;2023-03-01T04:35:14;17.90;;;9.07;;
58926;SDS011;44712;52.530;9.760;2023-03-01T04:37:41;19.45;;;10.07;;
58926;SDS011;44712;52.530;9.760;2023-03-01T04:40:08;13.80;;;9.00;;
58926;SDS011;44712;52.530;9.760;2023-03-01T04:42:42;19.00;;;10.13;;
58926;SDS011;44712;52.530;9.760;2023-03-01T04:45:09;13.00;;;9.25;;
58926;SDS011;44712;52.530;9.760;2023-03-01T04:47:43;15.88;;;9.68;;
58926;SDS011;44712;52.530;9.760;2023-03-01T04:50:14;20.65;;;10.77;;
58926;SDS011;44712;52.530;9.760;2023-03-01T04:52:43;19.63;;;11.30;;
58926;SDS011;44712;52.530;9.760;2023-03-01T04:55:10;20.13;;;11.02;;
58926;SDS011;44712;52.530;9.760;2023-03-01T04:57:37;20.63;;;10.70;;
58926;SDS011;44712;52.530;9.760;2023-03-01T05:00:05;18.48;;;11.25;;
58926;SDS011;44712;52.530;9.760;2023-03-01T05:02:53;15.52;;;9.77;;
58926;SDS011;44712;52.530;9.760;2023-03-01T05:05:28;20.75;;;10.18;;
58926;SDS011;44712;52.530;9.760;2023-03-01T05:07:58;22.40;;;11.27;;
58926;SDS011;44712;52.530;9.760;2023-03-01T05:10:27;18.25;;;11.13;;
58926;SDS011;44712;52.530;9.760;2023-03-01T05:12:55;21.10;;;11.18;;
58926;SDS011;44712;52.530;9.760;2023-03-01T05:15:24;21.35;;;12.32;;
58926;SDS011;44712;52.530;9.760;2023-03-01T05:17:55;25.05;;;11.38;;
58926;SDS011;44712;52.530;9.760;2023-03-01T05:20:25;17.73;;;10.38;;
58926;SDS011;44712;52.530;9.760;2023-03-01T05:22:54;21.40;;;11.32;;
58926;SDS011;44712;52.530;9.760;2023-03-01T05:25:22;19.85;;;11.02;;
58926;SDS011;44712;52.530;9.760;2023-03-01T05:27:48;17.73;;;10.75;;
58926;SDS011;44712;52.530;9.760;2023-03-01T05:30:16;21.50;;;11.18;;
58926;SDS011;44712;52.530;9.760;2023-03-01T05:32:45;17.48;;;10.25;;
58926;SDS011;44712;52.530;9.760;2023-03-01T05:35:14;15.82;;;9.60;;
58926;SDS011;44712;52.530;9.760;2023-03-01T05:37:46;12.10;;;8.02;;
58926;SDS011;44712;52.530;9.760;2023-03-01T05:40:15;13.90;;;8.63;;
58926;SDS011;44712;52.530;9.760;2023-03-01T05:42:47;16.80;;;9.27;;
58926;SDS011;44712;52.530;9.760;2023-03-01T05:45:16;16.17;;;10.00;;
58926;SDS011;44712;52.530;9.760;2023-03-01T05:47:44;17.48;;;9.07;;
58926;SDS011;44712;52.530;9.760;2023-03-01T05:50:13;20.55;;;11.20;;
58926;SDS011;44712;52.530;9.760;2023-03-01T05:52:40;21.90;;;10.15;;
58926;SDS011;44712;52.530;9.760;2023-03-01T05:55:06;18.98;;;10.63;;
58926;SDS011;44712;52.530;9.760;2023-03-01T05:57:33;21.05;;;10.65;;
58926;SDS011;44712;52.530;9.760;2023-03-01T06:00:01;18.58;;;10.88;;
58926;SDS011;44712;52.530;9.760;2023-03-01T06:02:37;22.63;;;11.15;;
58926;SDS011;44712;52.530;9.760;2023-03-01T06:05:06;18.27;;;12.65;;
58926;SDS011;44712;52.530;9.760;2023-03-01T06:07:34;18.90;;;10.32;;
58926;SDS011;44712;52.530;9.760;2023-03-01T06:10:02;18.30;;;10.20;;
58926;SDS011;44712;52.530;9.760;2023-03-01T06:12:34;20.05;;;10.68;;
58926;SDS011;44712;52.530;9.760;2023-03-01T06:15:02;19.20;;;10.50;;
58926;SDS011;44712;52.530;9.760;2023-03-01T06:17:31;18.63;;;11.00;;
58926;SDS011;44712;52.530;9.760;2023-03-01T06:19:58;15.93;;;10.98;;
58926;SDS011;44712;52.530;9.760;2023-03-01T06:22:26;19.95;;;10.75;;
58926;SDS011;44712;52.530;9.760;2023-03-01T06:24:53;16.98;;;10.85;;
58926;SDS011;44712;52.530;9.760;2023-03-01T06:27:19;21.70;;;11.68;;
58926;SDS011;44712;52.530;9.760;2023-03-01T06:29:46;22.77;;;11.82;;
58926;SDS011;44712;52.530;9.760;2023-03-01T06:32:13;17.98;;;10.30;;
58926;SDS011;44712;52.530;9.760;2023-03-01T06:34:39;19.33;;;10.88;;
58926;SDS011;44712;52.530;9.760;2023-03-01T06:37:06;19.13;;;11.85;;
58926;SDS011;44712;52.530;9.760;2023-03-01T06:39:33;18.58;;;11.30;;
58926;SDS011;44712;52.530;9.760;2023-03-01T06:42:00;21.60;;;11.80;;
58926;SDS011;44712;52.530;9.760;2023-03-01T06:44:27;22.45;;;11.88;;
58926;SDS011;44712;52.530;9.760;2023-03-01T06:46:53;21.50;;;11.40;;
58926;SDS011;44712;52.530;9.760;2023-03-01T06:49:21;20.58;;;11.73;;
58926;SDS011;44712;52.530;9.760;2023-03-01T06:51:48;19.92;;;11.30;;
58926;SDS011;44712;52.530;9.760;2023-03-01T06:54:14;15.85;;;10.20;;
58926;SDS011;44712;52.530;9.760;2023-03-01T06:56:41;22.73;;;11.55;;
58926;SDS011;44712;52.530;9.760;2023-03-01T06:59:07;20.17;;;11.15;;
58926;SDS011;44712;52.530;9.760;2023-03-01T07:01:34;17.15;;;11.15;;
58926;SDS011;44712;52.530;9.760;2023-03-01T07:04:01;23.83;;;10.43;;
58926;SDS011;44712;52.530;9.760;2023-03-01T07:06:27;21.02;;;9.90;;
58926;SDS011;44712;52.530;9.760;2023-03-01T07:08:55;20.60;;;11.02;;
58926;SDS011;44712;52.530;9.760;2023-03-01T07:11:21;22.25;;;11.38;;
58926;SDS011;44712;52.530;9.760;2023-03-01T07:13:48;18.33;;;9.73;;
58926;SDS011;44712;52.530;9.760;2023-03-01T07:16:15;16.52;;;11.20;;
58926;SDS011;44712;52.530;9.760;2023-03-01T07:18:42;22.50;;;10.15;;
58926;SDS011;44712;52.530;9.760;2023-03-01T07:21:09;27.27;;;11.05;;
58926;SDS011;44712;52.530;9.760;2023-03-01T07:23:39;23.83;;;12.30;;
58926;SDS011;44712;52.530;9.760;2023-03-01T07:26:06;23.30;;;13.15;;
58926;SDS011;44712;52.530;9.760;2023-03-01T07:28:33;28.00;;;13.88;;
58926;SDS011;44712;52.530;9.760;2023-03-01T07:31:02;31.80;;;15.77;;
58926;SDS011;44712;52.530;9.760;2023-03-01T07:33:29;35.67;;;18.17;;
58926;SDS011;44712;52.530;9.760;2023-03-01T07:35:57;55.50;;;28.15;;
58926;SDS011;44712;52.530;9.760;2023-03-01T07:38:24;61.28;;;30.50;;
58926;SDS011;44712;52.530;9.760;2023-03-01T07:40:51;54.70;;;27.90;;
58926;SDS011;44712;52.530;9.760;2023-03-01T07:43:18;59.17;;;28.25;;
58926;SDS011;44712;52.530;9.760;2023-03-01T07:45:46;55.28;;;24.50;;
58926;SDS011;44712;52.530;9.760;2023-03-01T07:48:13;58.92;;;25.13;;
58926;SDS011;44712;52.530;9.760;2023-03-01T07:50:39;48.33;;;24.52;;
58926;SDS011;44712;52.530;9.760;2023-03-01T07:53:06;64.35;;;28.35;;
58926;SDS011;44712;52.530;9.760;2023-03-01T07:55:33;59.92;;;28.65;;
58926;SDS011;44712;52.530;9.760;2023-03-01T07:58:00;56.17;;;29.38;;
58926;SDS011;44712;52.530;9.760;2023-03-01T08:00:26;46.17;;;25.50;;
58926;SDS011;44712;52.530;9.760;2023-03-01T08:02:53;44.90;;;22.30;;
58926;SDS011;44712;52.530;9.760;2023-03-01T08:05:19;35.92;;;19.77;;
58926;SDS011;44712;52.530;9.760;2023-03-01T08:07:48;46.92;;;20.33;;
58926;SDS011;44712;52.530;9.760;2023-03-01T08:10:14;38.58;;;20.55;;
58926;SDS011;44712;52.530;9.760;2023-03-01T08:12:41;39.38;;;18.13;;
58926;SDS011;44712;52.530;9.760;2023-03-01T08:15:08;33.78;;;15.77;;
58926;SDS011;44712;52.530;9.760;2023-03-01T08:17:35;30.05;;;15.00;;
58926;SDS011;44712;52.530;9.760;2023-03-01T08:20:02;26.63;;;14.52;;
58926;SDS011;44712;52.530;9.760;2023-03-01T08:22:30;27.15;;;14.00;;
58926;SDS011;44712;52.530;9.760;2023-03-01T08:24:57;25.65;;;13.85;;
58926;SDS011;44712;52.530;9.760;2023-03-01T08:27:23;25.75;;;12.98;;
58926;SDS011;44712;52.530;9.760;2023-03-01T08:29:51;30.88;;;13.55;;
58926;SDS011;44712;52.530;9.760;2023-03-01T08:32:17;29.20;;;12.52;;
58926;SDS011;44712;52.530;9.760;2023-03-01T08:34:46;34.08;;;13.15;;
58926;SDS011;44712;52.530;9.760;2023-03-01T08:37:13;22.38;;;13.52;;
58926;SDS011;44712;52.530;9.760;2023-03-01T08:39:40;24.67;;;12.93;;
58926;SDS011;44712;52.530;9.760;2023-03-01T08:42:06;28.05;;;13.38;;
58926;SDS011;44712;52.530;9.760;2023-03-01T08:44:33;25.08;;;13.23;;
58926;SDS011;44712;52.530;9.760;2023-03-01T08:47:01;24.42;;;13.10;;
58926;SDS011;44712;52.530;9.760;2023-03-01T08:49:28;28.55;;;13.05;;
58926;SDS011;44712;52.530;9.760;2023-03-01T08:51:55;26.60;;;12.05;;
58926;SDS011;44712;52.530;9.760;2023-03-01T08:54:21;29.73;;;12.27;;
58926;SDS011;44712;52.530;9.760;2023-03-01T08:56:48;24.50;;;12.95;;
58926;SDS011;44712;52.530;9.760;2023-03-01T08:59:16;27.08;;;13.20;;
58926;SDS011;44712;52.530;9.760;2023-03-01T09:01:43;22.50;;;12.00;;
58926;SDS011;44712;52.530;9.760;2023-03-01T09:04:10;25.63;;;13.15;;
58926;SDS011;44712;52.530;9.760;2023-03-01T09:06:38;32.28;;;13.45;;
58926;SDS011;44712;52.530;9.760;2023-03-01T09:09:05;20.90;;;11.55;;
58926;SDS011;44712;52.530;9.760;2023-03-01T09:11:33;25.58;;;11.35;;
58926;SDS011;44712;52.530;9.760;2023-03-01T09:13:59;20.83;;;11.95;;
58926;SDS011;44712;52.530;9.760;2023-03-01T09:16:26;21.95;;;11.27;;
58926;SDS011;44712;52.530;9.760;2023-03-01T09:18:53;20.80;;;11.25;;
58926;SDS011;44712;52.530;9.760;2023-03-01T09:21:21;21.55;;;10.88;;
58926;SDS011;44712;52.530;9.760;2023-03-01T09:24:05;20.08;;;10.73;;
58926;SDS011;44712;52.530;9.760;2023-03-01T09:26:32;23.02;;;11.15;;
58926;SDS011;44712;52.530;9.760;2023-03-01T09:28:59;17.98;;;9.55;;
58926;SDS011;44712;52.530;9.760;2023-03-01T09:31:26;21.75;;;10.80;;
58926;SDS011;44712;52.530;9.760;2023-03-01T09:33:53;19.45;;;8.63;;
58926;SDS011;44712;52.530;9.760;2023-03-01T09:36:21;15.02;;;8.75;;
58926;SDS011;44712;52.530;9.760;2023-03-01T09:38:50;19.85;;;9.52;;
58926;SDS011;44712;52.530;9.760;2023-03-01T09:47:05;22.67;;;11.82;;
58926;SDS011;44712;52.530;9.760;2023-03-01T09:49:36;17.05;;;9.30;;
58926;SDS011;44712;52.530;9.760;2023-03-01T09:52:25;19.80;;;8.93;;
58926;SDS011;44712;52.530;9.760;2023-03-01T09:54:54;16.20;;;8.23;;
58926;SDS011;44712;52.530;9.760;2023-03-01T09:57:35;16.73;;;8.40;;
58926;SDS011;44712;52.530;9.760;2023-03-01T10:00:12;18.90;;;7.88;;
58926;SDS011;44712;52.530;9.760;2023-03-01T10:02:48;18.50;;;7.30;;
58926;SDS011;44712;52.530;9.760;2023-03-01T10:08:21;15.13;;;7.18;;
58926;SDS011;44712;52.530;9.760;2023-03-01T10:10:51;16.45;;;7.28;;
58926;SDS011;44712;52.530;9.760;2023-03-01T10:19:42;15.73;;;7.40;;
58926;SDS011;44712;52.530;9.760;2023-03-01T10:22:18;14.55;;;7.03;;
58926;SDS011;44712;52.530;9.760;2023-03-01T10:24:50;13.07;;;6.88;;
58926;SDS011;44712;52.530;9.760;2023-03-01T10:27:21;14.30;;;7.03;;
58926;SDS011;44712;52.530;9.760;2023-03-01T10:32:26;13.20;;;6.60;;
58926;SDS011;44712;52.530;9.760;2023-03-01T10:34:53;12.63;;;6.40;;
58926;SDS011;44712;52.530;9.760;2023-03-01T10:37:20;13.50;;;7.18;;
58926;SDS011;44712;52.530;9.760;2023-03-01T10:39:55;10.55;;;5.93;;
58926;SDS011;44712;52.530;9.760;2023-03-01T10:42:33;16.35;;;7.45;;
58926;SDS011;44712;52.530;9.760;2023-03-01T10:48:18;13.98;;;6.55;;
58926;SDS011;44712;52.530;9.760;2023-03-01T10:50:46;10.10;;;5.80;;
58926;SDS011;44712;52.530;9.760;2023-03-01T10:53:28;15.35;;;6.70;;
58926;SDS011;44712;52.530;9.760;2023-03-01T10:55:59;12.73;;;6.00;;
58926;SDS011;44712;52.530;9.760;2023-03-01T10:58:38;12.02;;;4.85;;
58926;SDS011;44712;52.530;9.760;2023-03-01T11:01:24;11.40;;;6.00;;
58926;SDS011;44712;52.530;9.760;2023-03-01T11:06:32;8.85;;;4.80;;
58926;SDS011;44712;52.530;9.760;2023-03-01T11:09:17;14.68;;;5.50;;
58926;SDS011;44712;52.530;9.760;2023-03-01T11:11:46;9.57;;;5.28;;
58926;SDS011;44712;52.530;9.760;2023-03-01T11:14:22;9.77;;;4.78;;
58926;SDS011;44712;52.530;9.760;2023-03-01T11:17:03;5.97;;;3.80;;
58926;SDS011;44712;52.530;9.760;2023-03-01T11:20:15;8.40;;;4.78;;
58926;SDS011;44712;52.530;9.760;2023-03-01T11:22:45;9.13;;;4.30;;
58926;SDS011;44712;52.530;9.760;2023-03-01T11:25:15;9.23;;;4.78;;
58926;SDS011;44712;52.530;9.760;2023-03-01T11:27:45;10.73;;;4.57;;
58926;SDS011;44712;52.530;9.760;2023-03-01T11:33:02;10.25;;;5.28;;
58926;SDS011;44712;52.530;9.760;2023-03-01T11:35:40;9.25;;;4.75;;
58926;SDS011;44712;52.530;9.760;2023-03-01T11:43:52;9.07;;;4.85;;
58926;SDS011;44712;52.530;9.760;2023-03-01T11:46:33;10.13;;;4.63;;
58926;SDS011;44712;52.530;9.760;2023-03-01T11:52:03;9.88;;;5.65;;
58926;SDS011;44712;52.530;9.760;2023-03-01T12:11:23;10.65;;;4.80;;
58926;SDS011;44712;52.530;9.760;2023-03-01T12:14:21;10.05;;;4.72;;
58926;SDS011;44712;52.530;9.760;2023-03-01T12:19:56;8.55;;;5.15;;
58926;SDS011;44712;52.530;9.760;2023-03-01T12:23:07;9.27;;;5.38;;
58926;SDS011;44712;52.530;9.760;2023-03-01T12:25:58;8.70;;;5.05;;
58926;SDS011;44712;52.530;9.760;2023-03-01T12:28:51;7.55;;;4.30;;
58926;SDS011;44712;52.530;9.760;2023-03-01T22:09:20;9.20;;;6.93;;
58926;SDS011;44712;52.530;9.760;2023-03-01T22:11:49;11.20;;;7.85;;
58926;SDS011;44712;52.530;9.760;2023-03-01T22:14:20;12.43;;;8.13;;
58926;SDS011;44712;52.530;9.760;2023-03-01T22:16:47;11.02;;;7.30;;
58926;SDS011;44712;52.530;9.760;2023-03-01T22:19:18;14.95;;;7.95;;
58926;SDS011;44712;52.530;9.760;2023-03-01T22:21:47;13.43;;;8.40;;
58926;SDS011;44712;52.530;9.760;2023-03-01T22:24:16;13.27;;;8.43;;
58926;SDS011;44712;52.530;9.760;2023-03-01T22:26:45;12.13;;;8.25;;
58926;SDS011;44712;52.530;9.760;2023-03-01T22:29:14;11.48;;;7.93;;
58926;SDS011;44712;52.530;9.760;2023-03-01T22:31:43;10.88;;;7.22;;
58926;SDS011;44712;52.530;9.760;2023-03-01T22:34:12;11.95;;;8.50;;
58926;SDS011;44712;52.530;9.760;2023-03-01T22:36:40;15.13;;;9.00;;
58926;SDS011;44712;52.530;9.760;2023-03-01T22:39:07;14.52;;;7.68;;
58926;SDS011;44712;52.530;9.760;2023-03-01T22:41:36;15.40;;;9.20;;
58926;SDS011;44712;52.530;9.760;2023-03-01T22:44:13;13.32;;;9.20;;
58926;SDS011;44712;52.530;9.760;2023-03-01T22:46:41;11.95;;;9.35;;
58926;SDS011;44712;52.530;9.760;2023-03-01T22:49:09;15.57;;;10.77;;
58926;SDS011;44712;52.530;9.760;2023-03-01T22:51:36;16.40;;;11.32;;
58926;SDS011;44712;52.530;9.760;2023-03-01T22:54:05;13.05;;;8.30;;
58926;SDS011;44712;52.530;9.760;2023-03-01T22:56:33;13.93;;;8.35;;
58926;SDS011;44712;52.530;9.760;2023-03-01T22:59:06;12.50;;;8.15;;
58926;SDS011;44712;52.530;9.760;2023-03-01T23:01:35;15.10;;;8.30;;
58926;SDS011;44712;52.530;9.760;2023-03-01T23:04:03;12.27;;;8.00;;
58926;SDS011;44712;52.530;9.760;2023-03-01T23:06:29;11.68;;;7.82;;
58926;SDS011;44712;52.530;9.760;2023-03-01T23:08:57;10.95;;;7.25;;
58926;SDS011;44712;52.530;9.760;2023-03-01T23:11:29;11.40;;;7.63;;
58926;SDS011;44712;52.530;9.760;2023-03-01T23:13:57;13.85;;;7.13;;
58926;SDS011;44712;52.530;9.760;2023-03-01T23:16:24;12.73;;;7.75;;
58926;SDS011;44712;52.530;9.760;2023-03-01T23:18:55;12.48;;;7.55;;
58926;SDS011;44712;52.530;9.760;2023-03-01T23:21:25;12.40;;;7.65;;
58926;SDS011;44712;52.530;9.760;2023-03-01T23:23:52;13.05;;;7.10;;
58926;SDS011;44712;52.530;9.760;2023-03-01T23:26:20;11.05;;;6.63;;
58926;SDS011;44712;52.530;9.760;2023-03-01T23:28:47;12.30;;;7.55;;
58926;SDS011;44712;52.530;9.760;2023-03-01T23:31:16;12.00;;;6.97;;
58926;SDS011;44712;52.530;9.760;2023-03-01T23:33:43;13.07;;;8.55;;
58926;SDS011;44712;52.530;9.760;2023-03-01T23:38:40;12.23;;;8.05;;
58926;SDS011;44712;52.530;9.760;2023-03-01T23:41:08;13.63;;;8.45;;
58926;SDS011;44712;52.530;9.760;2023-03-01T23:43:36;9.48;;;6.97;;
58926;SDS011;44712;52.530;9.760;2023-03-01T23:46:04;12.45;;;8.15;;
58926;SDS011;44712;52.530;9.760;2023-03-01T23:48:31;10.52;;;7.20;;
58926;SDS011;44712;52.530;9.760;2023-03-01T23:51:02;12.15;;;7.97;;
58926;SDS011;44712;52.530;9.760;2023-03-01T23:53:32;11.18;;;7.72;;
58926;SDS011;44712;52.530;9.760;2023-03-01T23:56:01;13.02;;;7.93;;
58926;SDS011;44712;52.530;9.760;2023-03-01T23:58:30;10.43;;;7.50;;
